sensor_id;sensor_type;location;lat;lon;timestamp;P1;durP1;ratioP1;P2;durP2;ratioP2
32734;SDS011;19112;51.076;3.706;2023-07-02T00:01:44;52.15;;;21.95;;
32734;SDS011;19112;51.076;3.706;2023-07-02T00:04:12;49.10;;;21.48;;
32734;SDS011;19112;51.076;3.706;2023-07-02T00:06:41;52.25;;;20.55;;
32734;SDS011;19112;51.076;3.706;2023-07-02T00:09:13;58.67;;;23.20;;
32734;SDS011;19112;51.076;3.706;2023-07-02T00:11:41;47.65;;;21.65;;
32734;SDS011;19112;51.076;3.706;2023-07-02T00:14:10;55.40;;;22.42;;
32734;SDS011;19112;51.076;3.706;2023-07-02T00:16:44;46.20;;;21.85;;
32734;SDS011;19112;51.076;3.706;2023-07-02T00:19:13;50.03;;;22.08;;
32734;SDS011;19112;51.076;3.706;2023-07-02T00:21:40;57.33;;;22.80;;
32734;SDS011;19112;51.076;3.706;2023-07-02T00:24:07;54.20;;;22.63;;
32734;SDS011;19112;51.076;3.706;2023-07-02T00:26:34;60.00;;;24.02;;
32734;SDS011;19112;51.076;3.706;2023-07-02T00:29:02;59.63;;;23.45;;
32734;SDS011;19112;51.076;3.706;2023-07-02T00:31:29;57.95;;;23.13;;
32734;SDS011;19112;51.076;3.706;2023-07-02T00:33:54;54.53;;;24.33;;
32734;SDS011;19112;51.076;3.706;2023-07-02T00:36:20;61.42;;;23.60;;
32734;SDS011;19112;51.076;3.706;2023-07-02T00:38:48;59.55;;;22.63;;
32734;SDS011;19112;51.076;3.706;2023-07-02T00:41:15;48.53;;;22.15;;
32734;SDS011;19112;51.076;3.706;2023-07-02T00:43:41;50.75;;;22.00;;
32734;SDS011;19112;51.076;3.706;2023-07-02T00:46:13;62.08;;;24.35;;
32734;SDS011;19112;51.076;3.706;2023-07-02T00:48:43;60.90;;;23.42;;
32734;SDS011;19112;51.076;3.706;2023-07-02T00:51:11;52.97;;;23.02;;
32734;SDS011;19112;51.076;3.706;2023-07-02T00:53:50;55.63;;;22.55;;
32734;SDS011;19112;51.076;3.706;2023-07-02T00:56:20;56.72;;;23.27;;
32734;SDS011;19112;51.076;3.706;2023-07-02T00:58:48;59.88;;;24.95;;
32734;SDS011;19112;51.076;3.706;2023-07-02T01:01:22;60.30;;;23.45;;
32734;SDS011;19112;51.076;3.706;2023-07-02T01:03:51;57.42;;;22.70;;
32734;SDS011;19112;51.076;3.706;2023-07-02T01:06:19;59.30;;;24.17;;
32734;SDS011;19112;51.076;3.706;2023-07-02T01:08:52;62.78;;;24.88;;
32734;SDS011;19112;51.076;3.706;2023-07-02T01:11:30;55.67;;;22.50;;
32734;SDS011;19112;51.076;3.706;2023-07-02T01:14:08;60.38;;;22.92;;
32734;SDS011;19112;51.076;3.706;2023-07-02T01:16:43;61.47;;;24.65;;
32734;SDS011;19112;51.076;3.706;2023-07-02T01:19:13;53.50;;;25.05;;
32734;SDS011;19112;51.076;3.706;2023-07-02T01:21:46;63.13;;;25.33;;
32734;SDS011;19112;51.076;3.706;2023-07-02T01:24:14;62.20;;;25.25;;
32734;SDS011;19112;51.076;3.706;2023-07-02T01:26:42;56.67;;;26.42;;
32734;SDS011;19112;51.076;3.706;2023-07-02T01:29:14;53.03;;;23.65;;
32734;SDS011;19112;51.076;3.706;2023-07-02T01:31:45;61.40;;;25.67;;
32734;SDS011;19112;51.076;3.706;2023-07-02T01:34:12;63.78;;;23.10;;
32734;SDS011;19112;51.076;3.706;2023-07-02T01:36:39;60.75;;;24.67;;
32734;SDS011;19112;51.076;3.706;2023-07-02T01:39:05;63.15;;;25.00;;
32734;SDS011;19112;51.076;3.706;2023-07-02T01:41:36;60.67;;;25.63;;
32734;SDS011;19112;51.076;3.706;2023-07-02T01:44:07;56.95;;;23.67;;
32734;SDS011;19112;51.076;3.706;2023-07-02T01:46:33;62.70;;;26.45;;
32734;SDS011;19112;51.076;3.706;2023-07-02T01:48:59;63.85;;;25.48;;
32734;SDS011;19112;51.076;3.706;2023-07-02T01:51:25;62.85;;;25.27;;
32734;SDS011;19112;51.076;3.706;2023-07-02T01:53:50;58.13;;;24.38;;
32734;SDS011;19112;51.076;3.706;2023-07-02T01:56:16;57.83;;;24.63;;
32734;SDS011;19112;51.076;3.706;2023-07-02T01:58:42;57.35;;;25.00;;
32734;SDS011;19112;51.076;3.706;2023-07-02T02:01:08;60.67;;;25.05;;
32734;SDS011;19112;51.076;3.706;2023-07-02T02:03:34;62.47;;;25.23;;
32734;SDS011;19112;51.076;3.706;2023-07-02T02:05:59;59.38;;;26.30;;
32734;SDS011;19112;51.076;3.706;2023-07-02T02:08:25;63.60;;;26.60;;
32734;SDS011;19112;51.076;3.706;2023-07-02T02:10:51;67.72;;;25.92;;
32734;SDS011;19112;51.076;3.706;2023-07-02T02:13:17;51.50;;;24.52;;
32734;SDS011;19112;51.076;3.706;2023-07-02T02:15:43;63.33;;;27.15;;
32734;SDS011;19112;51.076;3.706;2023-07-02T02:18:09;62.80;;;25.38;;
32734;SDS011;19112;51.076;3.706;2023-07-02T02:20:34;64.32;;;25.27;;
32734;SDS011;19112;51.076;3.706;2023-07-02T02:23:00;60.03;;;24.88;;
32734;SDS011;19112;51.076;3.706;2023-07-02T02:25:27;61.33;;;24.92;;
32734;SDS011;19112;51.076;3.706;2023-07-02T02:27:53;53.10;;;24.15;;
32734;SDS011;19112;51.076;3.706;2023-07-02T02:30:18;63.80;;;27.23;;
32734;SDS011;19112;51.076;3.706;2023-07-02T02:32:44;68.50;;;25.15;;
32734;SDS011;19112;51.076;3.706;2023-07-02T02:35:10;56.83;;;26.05;;
32734;SDS011;19112;51.076;3.706;2023-07-02T02:37:37;62.83;;;26.52;;
32734;SDS011;19112;51.076;3.706;2023-07-02T02:40:04;68.22;;;27.67;;
32734;SDS011;19112;51.076;3.706;2023-07-02T02:42:34;63.15;;;25.85;;
32734;SDS011;19112;51.076;3.706;2023-07-02T02:45:01;67.72;;;26.02;;
32734;SDS011;19112;51.076;3.706;2023-07-02T02:47:27;65.25;;;26.30;;
32734;SDS011;19112;51.076;3.706;2023-07-02T02:49:53;58.70;;;25.88;;
32734;SDS011;19112;51.076;3.706;2023-07-02T02:52:19;74.15;;;27.25;;
32734;SDS011;19112;51.076;3.706;2023-07-02T02:54:45;60.42;;;25.33;;
32734;SDS011;19112;51.076;3.706;2023-07-02T02:57:11;66.45;;;27.55;;
32734;SDS011;19112;51.076;3.706;2023-07-02T02:59:38;60.95;;;26.73;;
32734;SDS011;19112;51.076;3.706;2023-07-02T03:02:04;65.25;;;25.95;;
32734;SDS011;19112;51.076;3.706;2023-07-02T03:04:30;62.00;;;25.35;;
32734;SDS011;19112;51.076;3.706;2023-07-02T03:06:56;65.53;;;27.88;;
32734;SDS011;19112;51.076;3.706;2023-07-02T03:09:21;65.32;;;26.70;;
32734;SDS011;19112;51.076;3.706;2023-07-02T03:11:47;65.78;;;26.77;;
32734;SDS011;19112;51.076;3.706;2023-07-02T03:14:13;60.25;;;25.10;;
32734;SDS011;19112;51.076;3.706;2023-07-02T03:16:43;63.85;;;25.60;;
32734;SDS011;19112;51.076;3.706;2023-07-02T03:19:10;64.95;;;26.40;;
32734;SDS011;19112;51.076;3.706;2023-07-02T03:21:36;65.82;;;26.05;;
32734;SDS011;19112;51.076;3.706;2023-07-02T03:24:02;65.28;;;27.65;;
32734;SDS011;19112;51.076;3.706;2023-07-02T03:26:28;64.97;;;27.05;;
32734;SDS011;19112;51.076;3.706;2023-07-02T03:28:54;67.07;;;28.45;;
32734;SDS011;19112;51.076;3.706;2023-07-02T03:31:19;68.15;;;27.83;;
32734;SDS011;19112;51.076;3.706;2023-07-02T03:33:45;62.65;;;26.85;;
32734;SDS011;19112;51.076;3.706;2023-07-02T03:36:11;72.57;;;28.77;;
32734;SDS011;19112;51.076;3.706;2023-07-02T03:38:37;65.28;;;27.33;;
32734;SDS011;19112;51.076;3.706;2023-07-02T03:41:03;68.35;;;28.40;;
32734;SDS011;19112;51.076;3.706;2023-07-02T03:43:29;64.38;;;26.83;;
32734;SDS011;19112;51.076;3.706;2023-07-02T03:45:57;64.60;;;27.38;;
32734;SDS011;19112;51.076;3.706;2023-07-02T03:48:23;62.00;;;26.50;;
32734;SDS011;19112;51.076;3.706;2023-07-02T03:50:48;68.82;;;27.27;;
32734;SDS011;19112;51.076;3.706;2023-07-02T03:53:14;70.10;;;29.27;;
32734;SDS011;19112;51.076;3.706;2023-07-02T03:55:40;65.07;;;26.27;;
32734;SDS011;19112;51.076;3.706;2023-07-02T03:58:07;61.03;;;26.98;;
32734;SDS011;19112;51.076;3.706;2023-07-02T04:00:34;73.95;;;28.73;;
32734;SDS011;19112;51.076;3.706;2023-07-02T04:03:01;69.35;;;28.48;;
32734;SDS011;19112;51.076;3.706;2023-07-02T04:05:27;66.07;;;27.45;;
32734;SDS011;19112;51.076;3.706;2023-07-02T04:07:53;67.13;;;28.02;;
32734;SDS011;19112;51.076;3.706;2023-07-02T04:10:19;66.07;;;29.67;;
32734;SDS011;19112;51.076;3.706;2023-07-02T04:12:45;67.65;;;26.95;;
32734;SDS011;19112;51.076;3.706;2023-07-02T04:15:11;59.05;;;26.98;;
32734;SDS011;19112;51.076;3.706;2023-07-02T04:17:37;65.63;;;27.10;;
32734;SDS011;19112;51.076;3.706;2023-07-02T04:20:02;62.47;;;26.27;;
32734;SDS011;19112;51.076;3.706;2023-07-02T04:22:29;69.43;;;28.13;;
32734;SDS011;19112;51.076;3.706;2023-07-02T04:24:55;66.63;;;29.13;;
32734;SDS011;19112;51.076;3.706;2023-07-02T04:27:21;55.85;;;25.42;;
32734;SDS011;19112;51.076;3.706;2023-07-02T04:29:47;68.22;;;26.95;;
32734;SDS011;19112;51.076;3.706;2023-07-02T04:32:13;68.45;;;27.67;;
32734;SDS011;19112;51.076;3.706;2023-07-02T04:34:39;63.15;;;25.90;;
32734;SDS011;19112;51.076;3.706;2023-07-02T04:37:05;71.25;;;28.65;;
32734;SDS011;19112;51.076;3.706;2023-07-02T04:39:31;62.10;;;27.63;;
32734;SDS011;19112;51.076;3.706;2023-07-02T04:41:57;67.75;;;28.92;;
32734;SDS011;19112;51.076;3.706;2023-07-02T04:44:23;64.32;;;26.25;;
32734;SDS011;19112;51.076;3.706;2023-07-02T04:46:58;62.87;;;26.80;;
32734;SDS011;19112;51.076;3.706;2023-07-02T04:49:26;59.38;;;26.67;;
32734;SDS011;19112;51.076;3.706;2023-07-02T04:51:52;61.10;;;26.52;;
32734;SDS011;19112;51.076;3.706;2023-07-02T04:54:19;56.20;;;25.33;;
32734;SDS011;19112;51.076;3.706;2023-07-02T04:56:46;60.95;;;27.60;;
32734;SDS011;19112;51.076;3.706;2023-07-02T04:59:13;54.58;;;26.02;;
32734;SDS011;19112;51.076;3.706;2023-07-02T05:01:40;60.05;;;25.80;;
32734;SDS011;19112;51.076;3.706;2023-07-02T05:04:06;56.53;;;25.80;;
32734;SDS011;19112;51.076;3.706;2023-07-02T05:06:35;58.55;;;26.23;;
32734;SDS011;19112;51.076;3.706;2023-07-02T05:09:01;64.53;;;26.77;;
32734;SDS011;19112;51.076;3.706;2023-07-02T05:11:27;61.55;;;26.50;;
32734;SDS011;19112;51.076;3.706;2023-07-02T05:13:53;55.38;;;24.80;;
32734;SDS011;19112;51.076;3.706;2023-07-02T05:18:48;60.30;;;24.55;;
32734;SDS011;19112;51.076;3.706;2023-07-02T05:21:17;63.35;;;25.30;;
32734;SDS011;19112;51.076;3.706;2023-07-02T05:23:43;53.80;;;23.25;;
32734;SDS011;19112;51.076;3.706;2023-07-02T05:26:09;54.10;;;23.08;;
32734;SDS011;19112;51.076;3.706;2023-07-02T05:28:35;50.90;;;23.60;;
32734;SDS011;19112;51.076;3.706;2023-07-02T05:31:01;52.08;;;21.70;;
32734;SDS011;19112;51.076;3.706;2023-07-02T05:33:27;62.17;;;21.23;;
32734;SDS011;19112;51.076;3.706;2023-07-02T05:35:53;48.95;;;19.63;;
32734;SDS011;19112;51.076;3.706;2023-07-02T05:38:19;44.72;;;19.40;;
32734;SDS011;19112;51.076;3.706;2023-07-02T05:40:45;46.38;;;18.60;;
32734;SDS011;19112;51.076;3.706;2023-07-02T05:43:11;51.88;;;19.75;;
32734;SDS011;19112;51.076;3.706;2023-07-02T05:45:37;38.83;;;17.55;;
32734;SDS011;19112;51.076;3.706;2023-07-02T05:48:03;45.25;;;18.08;;
32734;SDS011;19112;51.076;3.706;2023-07-02T05:50:29;42.33;;;18.10;;
32734;SDS011;19112;51.076;3.706;2023-07-02T05:52:54;47.55;;;19.00;;
32734;SDS011;19112;51.076;3.706;2023-07-02T05:55:20;47.83;;;16.80;;
32734;SDS011;19112;51.076;3.706;2023-07-02T05:57:46;39.25;;;15.70;;
32734;SDS011;19112;51.076;3.706;2023-07-02T06:00:12;42.00;;;16.77;;
32734;SDS011;19112;51.076;3.706;2023-07-02T06:02:38;39.15;;;16.35;;
32734;SDS011;19112;51.076;3.706;2023-07-02T06:05:04;41.97;;;15.82;;
32734;SDS011;19112;51.076;3.706;2023-07-02T06:07:31;36.83;;;15.77;;
32734;SDS011;19112;51.076;3.706;2023-07-02T06:09:57;36.88;;;15.45;;
32734;SDS011;19112;51.076;3.706;2023-07-02T06:12:22;40.42;;;14.18;;
32734;SDS011;19112;51.076;3.706;2023-07-02T06:14:48;31.42;;;13.57;;
32734;SDS011;19112;51.076;3.706;2023-07-02T06:17:14;35.15;;;14.82;;
32734;SDS011;19112;51.076;3.706;2023-07-02T06:19:40;32.50;;;12.98;;
32734;SDS011;19112;51.076;3.706;2023-07-02T06:22:06;29.75;;;12.25;;
32734;SDS011;19112;51.076;3.706;2023-07-02T06:24:32;35.75;;;11.70;;
32734;SDS011;19112;51.076;3.706;2023-07-02T06:26:58;36.33;;;12.88;;
32734;SDS011;19112;51.076;3.706;2023-07-02T06:29:24;31.40;;;11.82;;
32734;SDS011;19112;51.076;3.706;2023-07-02T06:31:50;36.72;;;12.48;;
32734;SDS011;19112;51.076;3.706;2023-07-02T06:34:16;30.40;;;11.82;;
32734;SDS011;19112;51.076;3.706;2023-07-02T06:36:42;29.23;;;11.35;;
32734;SDS011;19112;51.076;3.706;2023-07-02T06:39:08;27.90;;;10.20;;
32734;SDS011;19112;51.076;3.706;2023-07-02T06:41:35;31.52;;;10.90;;
32734;SDS011;19112;51.076;3.706;2023-07-02T06:44:01;34.50;;;10.05;;
32734;SDS011;19112;51.076;3.706;2023-07-02T06:46:27;26.95;;;10.90;;
32734;SDS011;19112;51.076;3.706;2023-07-02T06:48:54;27.70;;;10.48;;
32734;SDS011;19112;51.076;3.706;2023-07-02T06:51:21;27.35;;;9.95;;
32734;SDS011;19112;51.076;3.706;2023-07-02T06:53:47;31.23;;;10.90;;
32734;SDS011;19112;51.076;3.706;2023-07-02T06:56:13;30.05;;;10.23;;
32734;SDS011;19112;51.076;3.706;2023-07-02T06:58:39;27.13;;;9.68;;
32734;SDS011;19112;51.076;3.706;2023-07-02T07:01:08;29.20;;;10.15;;
32734;SDS011;19112;51.076;3.706;2023-07-02T07:03:34;31.27;;;9.82;;
32734;SDS011;19112;51.076;3.706;2023-07-02T07:06:00;28.40;;;9.27;;
32734;SDS011;19112;51.076;3.706;2023-07-02T07:08:26;28.23;;;9.52;;
32734;SDS011;19112;51.076;3.706;2023-07-02T07:10:52;30.80;;;10.05;;
32734;SDS011;19112;51.076;3.706;2023-07-02T07:13:18;25.83;;;9.18;;
32734;SDS011;19112;51.076;3.706;2023-07-02T07:15:44;27.95;;;9.75;;
32734;SDS011;19112;51.076;3.706;2023-07-02T07:18:10;26.30;;;9.75;;
32734;SDS011;19112;51.076;3.706;2023-07-02T07:20:36;27.40;;;9.07;;
32734;SDS011;19112;51.076;3.706;2023-07-02T07:23:04;24.95;;;9.10;;
32734;SDS011;19112;51.076;3.706;2023-07-02T07:25:30;27.15;;;9.40;;
32734;SDS011;19112;51.076;3.706;2023-07-02T07:27:57;25.48;;;8.32;;
32734;SDS011;19112;51.076;3.706;2023-07-02T07:30:24;27.45;;;9.55;;
32734;SDS011;19112;51.076;3.706;2023-07-02T07:32:51;24.20;;;8.52;;
32734;SDS011;19112;51.076;3.706;2023-07-02T07:35:21;26.67;;;8.50;;
32734;SDS011;19112;51.076;3.706;2023-07-02T07:37:47;27.48;;;9.10;;
32734;SDS011;19112;51.076;3.706;2023-07-02T07:40:14;26.63;;;8.68;;
32734;SDS011;19112;51.076;3.706;2023-07-02T07:42:41;30.42;;;10.50;;
32734;SDS011;19112;51.076;3.706;2023-07-02T07:45:08;25.70;;;9.63;;
32734;SDS011;19112;51.076;3.706;2023-07-02T07:47:36;30.35;;;10.55;;
32734;SDS011;19112;51.076;3.706;2023-07-02T07:50:02;26.88;;;10.00;;
32734;SDS011;19112;51.076;3.706;2023-07-02T07:52:33;28.58;;;10.45;;
32734;SDS011;19112;51.076;3.706;2023-07-02T07:54:59;35.17;;;12.05;;
32734;SDS011;19112;51.076;3.706;2023-07-02T07:57:25;31.88;;;11.80;;
32734;SDS011;19112;51.076;3.706;2023-07-02T07:59:51;33.45;;;12.20;;
32734;SDS011;19112;51.076;3.706;2023-07-02T08:02:17;33.10;;;11.98;;
32734;SDS011;19112;51.076;3.706;2023-07-02T08:04:42;32.65;;;11.35;;
32734;SDS011;19112;51.076;3.706;2023-07-02T08:07:08;35.47;;;11.98;;
32734;SDS011;19112;51.076;3.706;2023-07-02T08:09:34;37.58;;;13.13;;
32734;SDS011;19112;51.076;3.706;2023-07-02T08:12:00;34.88;;;12.90;;
32734;SDS011;19112;51.076;3.706;2023-07-02T08:14:26;37.97;;;14.13;;
32734;SDS011;19112;51.076;3.706;2023-07-02T08:16:51;41.33;;;14.02;;
32734;SDS011;19112;51.076;3.706;2023-07-02T08:19:17;36.22;;;14.38;;
32734;SDS011;19112;51.076;3.706;2023-07-02T08:21:45;34.90;;;14.45;;
32734;SDS011;19112;51.076;3.706;2023-07-02T08:24:11;47.13;;;15.27;;
32734;SDS011;19112;51.076;3.706;2023-07-02T08:26:38;34.67;;;13.80;;
32734;SDS011;19112;51.076;3.706;2023-07-02T08:29:03;39.70;;;14.00;;
32734;SDS011;19112;51.076;3.706;2023-07-02T08:31:29;37.85;;;13.90;;
32734;SDS011;19112;51.076;3.706;2023-07-02T08:33:55;38.15;;;12.95;;
32734;SDS011;19112;51.076;3.706;2023-07-02T08:36:21;38.55;;;13.00;;
32734;SDS011;19112;51.076;3.706;2023-07-02T08:38:47;38.88;;;13.23;;
32734;SDS011;19112;51.076;3.706;2023-07-02T08:41:13;35.15;;;13.43;;
32734;SDS011;19112;51.076;3.706;2023-07-02T08:43:38;34.75;;;13.95;;
32734;SDS011;19112;51.076;3.706;2023-07-02T08:46:05;33.83;;;13.40;;
32734;SDS011;19112;51.076;3.706;2023-07-02T08:48:32;33.72;;;12.77;;
32734;SDS011;19112;51.076;3.706;2023-07-02T08:50:59;34.88;;;12.82;;
32734;SDS011;19112;51.076;3.706;2023-07-02T08:53:27;34.75;;;12.88;;
32734;SDS011;19112;51.076;3.706;2023-07-02T08:55:58;33.53;;;12.65;;
32734;SDS011;19112;51.076;3.706;2023-07-02T08:58:28;30.30;;;11.13;;
32734;SDS011;19112;51.076;3.706;2023-07-02T09:01:10;31.02;;;11.25;;
32734;SDS011;19112;51.076;3.706;2023-07-02T09:03:38;32.63;;;11.52;;
32734;SDS011;19112;51.076;3.706;2023-07-02T09:06:06;28.92;;;10.95;;
32734;SDS011;19112;51.076;3.706;2023-07-02T09:08:33;33.10;;;11.27;;
32734;SDS011;19112;51.076;3.706;2023-07-02T09:11:10;29.77;;;10.45;;
32734;SDS011;19112;51.076;3.706;2023-07-02T09:13:51;30.83;;;11.20;;
32734;SDS011;19112;51.076;3.706;2023-07-02T09:16:33;32.83;;;11.95;;
32734;SDS011;19112;51.076;3.706;2023-07-02T09:19:05;30.13;;;10.23;;
32734;SDS011;19112;51.076;3.706;2023-07-02T09:24:13;32.08;;;11.38;;
32734;SDS011;19112;51.076;3.706;2023-07-02T09:26:47;28.27;;;9.35;;
32734;SDS011;19112;51.076;3.706;2023-07-02T09:29:26;29.08;;;9.85;;
32734;SDS011;19112;51.076;3.706;2023-07-02T09:31:57;24.33;;;8.85;;
32734;SDS011;19112;51.076;3.706;2023-07-02T09:34:33;21.80;;;7.78;;
32734;SDS011;19112;51.076;3.706;2023-07-02T09:37:01;24.55;;;7.50;;
32734;SDS011;19112;51.076;3.706;2023-07-02T09:39:31;25.10;;;8.32;;
32734;SDS011;19112;51.076;3.706;2023-07-02T09:42:02;23.38;;;8.20;;
32734;SDS011;19112;51.076;3.706;2023-07-02T09:44:31;26.58;;;9.00;;
32734;SDS011;19112;51.076;3.706;2023-07-02T09:47:06;27.00;;;8.45;;
32734;SDS011;19112;51.076;3.706;2023-07-02T09:49:40;25.88;;;9.30;;
32734;SDS011;19112;51.076;3.706;2023-07-02T09:52:10;25.08;;;7.97;;
32734;SDS011;19112;51.076;3.706;2023-07-02T09:54:38;22.10;;;7.15;;
32734;SDS011;19112;51.076;3.706;2023-07-02T09:57:04;25.88;;;7.82;;
32734;SDS011;19112;51.076;3.706;2023-07-02T09:59:32;24.77;;;7.57;;
32734;SDS011;19112;51.076;3.706;2023-07-02T10:01:58;25.88;;;6.82;;
32734;SDS011;19112;51.076;3.706;2023-07-02T10:04:24;25.52;;;7.72;;
32734;SDS011;19112;51.076;3.706;2023-07-02T10:06:51;23.63;;;7.30;;
32734;SDS011;19112;51.076;3.706;2023-07-02T10:09:20;21.63;;;6.93;;
32734;SDS011;19112;51.076;3.706;2023-07-02T10:11:58;21.02;;;6.35;;
32734;SDS011;19112;51.076;3.706;2023-07-02T10:14:24;24.48;;;7.18;;
32734;SDS011;19112;51.076;3.706;2023-07-02T10:16:51;23.85;;;7.03;;
32734;SDS011;19112;51.076;3.706;2023-07-02T10:19:18;27.05;;;7.00;;
32734;SDS011;19112;51.076;3.706;2023-07-02T10:21:45;23.70;;;7.93;;
32734;SDS011;19112;51.076;3.706;2023-07-02T10:24:25;23.65;;;7.00;;
32734;SDS011;19112;51.076;3.706;2023-07-02T10:27:00;21.85;;;5.95;;
32734;SDS011;19112;51.076;3.706;2023-07-02T10:29:28;24.70;;;6.43;;
32734;SDS011;19112;51.076;3.706;2023-07-02T10:31:55;27.17;;;7.00;;
32734;SDS011;19112;51.076;3.706;2023-07-02T10:34:32;21.20;;;6.93;;
32734;SDS011;19112;51.076;3.706;2023-07-02T10:37:00;24.02;;;7.20;;
32734;SDS011;19112;51.076;3.706;2023-07-02T10:39:30;24.65;;;6.72;;
32734;SDS011;19112;51.076;3.706;2023-07-02T10:42:04;21.02;;;7.28;;
32734;SDS011;19112;51.076;3.706;2023-07-02T10:44:34;20.92;;;6.97;;
32734;SDS011;19112;51.076;3.706;2023-07-02T10:47:17;26.45;;;7.10;;
32734;SDS011;19112;51.076;3.706;2023-07-02T10:49:44;19.52;;;6.00;;
32734;SDS011;19112;51.076;3.706;2023-07-02T10:52:10;25.85;;;7.35;;
32734;SDS011;19112;51.076;3.706;2023-07-02T10:54:40;20.83;;;7.25;;
32734;SDS011;19112;51.076;3.706;2023-07-02T10:57:12;20.70;;;6.75;;
32734;SDS011;19112;51.076;3.706;2023-07-02T10:59:41;19.52;;;6.70;;
32734;SDS011;19112;51.076;3.706;2023-07-02T11:02:07;23.65;;;6.75;;
32734;SDS011;19112;51.076;3.706;2023-07-02T11:04:35;25.30;;;7.20;;
32734;SDS011;19112;51.076;3.706;2023-07-02T11:07:02;28.02;;;7.75;;
32734;SDS011;19112;51.076;3.706;2023-07-02T11:09:29;22.48;;;6.70;;
32734;SDS011;19112;51.076;3.706;2023-07-02T11:11:56;22.42;;;7.47;;
32734;SDS011;19112;51.076;3.706;2023-07-02T11:14:34;20.95;;;7.45;;
32734;SDS011;19112;51.076;3.706;2023-07-02T11:17:02;22.15;;;7.20;;
32734;SDS011;19112;51.076;3.706;2023-07-02T11:19:31;30.20;;;7.95;;
32734;SDS011;19112;51.076;3.706;2023-07-02T11:22:01;23.05;;;7.05;;
32734;SDS011;19112;51.076;3.706;2023-07-02T11:24:34;26.75;;;7.35;;
32734;SDS011;19112;51.076;3.706;2023-07-02T11:27:05;22.80;;;7.13;;
32734;SDS011;19112;51.076;3.706;2023-07-02T11:29:31;21.95;;;6.70;;
32734;SDS011;19112;51.076;3.706;2023-07-02T11:32:09;21.48;;;7.38;;
32734;SDS011;19112;51.076;3.706;2023-07-02T11:34:39;19.55;;;6.35;;
32734;SDS011;19112;51.076;3.706;2023-07-02T11:37:05;21.35;;;7.00;;
32734;SDS011;19112;51.076;3.706;2023-07-02T11:39:31;21.50;;;7.28;;
32734;SDS011;19112;51.076;3.706;2023-07-02T11:41:57;24.17;;;7.53;;
32734;SDS011;19112;51.076;3.706;2023-07-02T11:44:23;21.08;;;6.88;;
32734;SDS011;19112;51.076;3.706;2023-07-02T11:46:49;23.88;;;6.68;;
32734;SDS011;19112;51.076;3.706;2023-07-02T11:49:15;24.98;;;8.05;;
32734;SDS011;19112;51.076;3.706;2023-07-02T11:51:42;21.70;;;7.18;;
32734;SDS011;19112;51.076;3.706;2023-07-02T11:54:15;23.95;;;7.68;;
32734;SDS011;19112;51.076;3.706;2023-07-02T11:56:42;22.42;;;8.13;;
32734;SDS011;19112;51.076;3.706;2023-07-02T11:59:09;19.27;;;7.47;;
32734;SDS011;19112;51.076;3.706;2023-07-02T12:01:38;22.35;;;7.78;;
32734;SDS011;19112;51.076;3.706;2023-07-02T12:04:04;22.30;;;7.47;;
32734;SDS011;19112;51.076;3.706;2023-07-02T12:06:32;23.42;;;7.63;;
32734;SDS011;19112;51.076;3.706;2023-07-02T12:08:59;25.02;;;8.18;;
32734;SDS011;19112;51.076;3.706;2023-07-02T12:11:25;20.92;;;7.10;;
32734;SDS011;19112;51.076;3.706;2023-07-02T12:13:51;25.35;;;8.45;;
32734;SDS011;19112;51.076;3.706;2023-07-02T12:16:16;22.65;;;7.72;;
32734;SDS011;19112;51.076;3.706;2023-07-02T12:18:42;24.42;;;7.80;;
32734;SDS011;19112;51.076;3.706;2023-07-02T12:21:08;25.45;;;7.45;;
32734;SDS011;19112;51.076;3.706;2023-07-02T12:23:34;21.38;;;6.95;;
32734;SDS011;19112;51.076;3.706;2023-07-02T12:26:00;20.02;;;7.32;;
32734;SDS011;19112;51.076;3.706;2023-07-02T12:28:26;28.73;;;8.50;;
32734;SDS011;19112;51.076;3.706;2023-07-02T12:30:52;25.30;;;9.10;;
32734;SDS011;19112;51.076;3.706;2023-07-02T12:33:18;22.92;;;7.75;;
32734;SDS011;19112;51.076;3.706;2023-07-02T12:35:44;21.30;;;7.22;;
32734;SDS011;19112;51.076;3.706;2023-07-02T12:38:10;22.00;;;7.90;;
32734;SDS011;19112;51.076;3.706;2023-07-02T12:40:37;23.67;;;8.20;;
32734;SDS011;19112;51.076;3.706;2023-07-02T12:43:02;24.20;;;7.97;;
32734;SDS011;19112;51.076;3.706;2023-07-02T12:45:28;21.38;;;7.13;;
32734;SDS011;19112;51.076;3.706;2023-07-02T12:47:54;24.38;;;7.82;;
32734;SDS011;19112;51.076;3.706;2023-07-02T12:50:20;24.90;;;7.40;;
32734;SDS011;19112;51.076;3.706;2023-07-02T12:52:46;22.33;;;8.10;;
32734;SDS011;19112;51.076;3.706;2023-07-02T12:55:12;23.73;;;7.75;;
32734;SDS011;19112;51.076;3.706;2023-07-02T12:57:37;24.63;;;8.68;;
32734;SDS011;19112;51.076;3.706;2023-07-02T13:00:03;22.10;;;7.25;;
32734;SDS011;19112;51.076;3.706;2023-07-02T13:02:34;23.02;;;7.70;;
32734;SDS011;19112;51.076;3.706;2023-07-02T13:05:00;22.63;;;7.97;;
32734;SDS011;19112;51.076;3.706;2023-07-02T13:07:25;24.05;;;7.07;;
32734;SDS011;19112;51.076;3.706;2023-07-02T13:09:55;22.08;;;8.20;;
32734;SDS011;19112;51.076;3.706;2023-07-02T13:12:21;24.88;;;7.03;;
32734;SDS011;19112;51.076;3.706;2023-07-02T13:14:47;22.08;;;7.68;;
32734;SDS011;19112;51.076;3.706;2023-07-02T13:17:12;22.25;;;7.25;;
32734;SDS011;19112;51.076;3.706;2023-07-02T13:19:38;20.35;;;6.78;;
32734;SDS011;19112;51.076;3.706;2023-07-02T13:22:04;21.30;;;6.93;;
32734;SDS011;19112;51.076;3.706;2023-07-02T13:24:33;19.15;;;6.55;;
32734;SDS011;19112;51.076;3.706;2023-07-02T13:27:03;23.08;;;8.07;;
32734;SDS011;19112;51.076;3.706;2023-07-02T13:29:33;24.02;;;6.97;;
32734;SDS011;19112;51.076;3.706;2023-07-02T13:31:59;23.02;;;7.82;;
32734;SDS011;19112;51.076;3.706;2023-07-02T13:34:25;22.23;;;7.43;;
32734;SDS011;19112;51.076;3.706;2023-07-02T13:36:51;20.10;;;6.95;;
32734;SDS011;19112;51.076;3.706;2023-07-02T13:39:17;23.77;;;7.55;;
32734;SDS011;19112;51.076;3.706;2023-07-02T13:41:43;26.45;;;7.82;;
32734;SDS011;19112;51.076;3.706;2023-07-02T13:44:09;21.05;;;6.97;;
32734;SDS011;19112;51.076;3.706;2023-07-02T13:46:35;27.05;;;6.95;;
32734;SDS011;19112;51.076;3.706;2023-07-02T13:49:00;22.05;;;7.38;;
32734;SDS011;19112;51.076;3.706;2023-07-02T13:51:27;19.77;;;7.15;;
32734;SDS011;19112;51.076;3.706;2023-07-02T13:53:53;26.50;;;7.25;;
32734;SDS011;19112;51.076;3.706;2023-07-02T13:56:19;20.50;;;7.18;;
32734;SDS011;19112;51.076;3.706;2023-07-02T14:01:23;20.98;;;7.32;;
32734;SDS011;19112;51.076;3.706;2023-07-02T14:03:50;23.08;;;7.13;;
32734;SDS011;19112;51.076;3.706;2023-07-02T14:06:16;21.08;;;7.75;;
32734;SDS011;19112;51.076;3.706;2023-07-02T14:08:42;23.98;;;7.65;;
32734;SDS011;19112;51.076;3.706;2023-07-02T14:11:08;24.05;;;7.43;;
32734;SDS011;19112;51.076;3.706;2023-07-02T14:13:34;23.65;;;7.45;;
32734;SDS011;19112;51.076;3.706;2023-07-02T14:16:00;21.90;;;7.10;;
32734;SDS011;19112;51.076;3.706;2023-07-02T14:18:27;21.48;;;7.10;;
32734;SDS011;19112;51.076;3.706;2023-07-02T14:20:53;22.65;;;7.72;;
32734;SDS011;19112;51.076;3.706;2023-07-02T14:23:18;24.45;;;7.65;;
32734;SDS011;19112;51.076;3.706;2023-07-02T14:25:44;26.40;;;8.43;;
32734;SDS011;19112;51.076;3.706;2023-07-02T14:28:10;26.75;;;8.05;;
32734;SDS011;19112;51.076;3.706;2023-07-02T14:30:36;22.95;;;8.77;;
32734;SDS011;19112;51.076;3.706;2023-07-02T14:33:02;24.83;;;8.75;;
32734;SDS011;19112;51.076;3.706;2023-07-02T14:35:28;26.85;;;8.82;;